createdAt,value
2023-05-05T00:00:31.328Z,14.09
2023-05-05T00:02:59.964Z,14.08
2023-05-05T00:05:28.359Z,14.10
2023-05-05T00:07:56.620Z,14.12
2023-05-05T00:10:26.710Z,14.10
2023-05-05T00:12:54.971Z,14.08
2023-05-05T00:15:23.088Z,14.05
2023-05-05T00:17:51.255Z,14.04
2023-05-05T00:20:21.153Z,14.01
2023-05-05T00:22:49.269Z,14.01
2023-05-05T00:25:17.816Z,14.05
2023-05-05T00:27:47.346Z,14.04
2023-05-05T00:30:16.638Z,14.02
2023-05-05T00:32:45.205Z,14.02
2023-05-05T00:35:13.882Z,14.04
2023-05-05T00:37:42.486Z,14.03
2023-05-05T00:40:12.519Z,14.03
2023-05-05T00:42:42.514Z,14.04
2023-05-05T00:45:13.876Z,14.05
2023-05-05T00:47:45.748Z,14.00
2023-05-05T00:50:23.975Z,13.92
2023-05-05T00:52:57.214Z,13.89
2023-05-05T00:55:26.139Z,13.86
2023-05-05T00:57:54.940Z,13.85
2023-05-05T01:00:26.328Z,13.84
2023-05-05T01:02:55.337Z,13.81
2023-05-05T01:05:27.330Z,13.79
2023-05-05T01:08:16.450Z,13.80
2023-05-05T01:10:53.744Z,13.80
2023-05-05T01:13:31.929Z,13.83
2023-05-05T01:16:11.710Z,13.85
2023-05-05T01:18:50.860Z,13.85
2023-05-05T01:21:27.166Z,13.82
2023-05-05T01:24:19.865Z,13.84
2023-05-05T01:27:15.285Z,13.87
2023-05-05T01:30:06.686Z,13.84
2023-05-05T01:32:43.206Z,13.79
2023-05-05T01:35:17.449Z,13.77
2023-05-05T01:37:52.115Z,13.80
2023-05-05T01:40:27.462Z,13.83
2023-05-05T01:42:58.373Z,13.79
2023-05-05T01:45:33.405Z,13.81
2023-05-05T01:48:06.111Z,13.80
2023-05-05T01:50:37.562Z,13.76
2023-05-05T01:53:09.492Z,13.72
2023-05-05T01:55:41.203Z,13.65
2023-05-05T01:58:12.513Z,13.62
2023-05-05T02:00:42.848Z,13.63
2023-05-05T02:03:16.041Z,13.65
2023-05-05T02:05:50.110Z,13.66
2023-05-05T02:08:20.131Z,13.63
2023-05-05T02:10:50.728Z,13.60
2023-05-05T02:13:20.331Z,13.57
2023-05-05T02:15:51.338Z,13.54
2023-05-05T02:18:22.994Z,13.52
2023-05-05T02:20:53.163Z,13.48
2023-05-05T02:23:21.826Z,13.47
2023-05-05T02:25:54.378Z,13.36
2023-05-05T02:28:34.876Z,13.28
2023-05-05T02:31:08.205Z,13.24
2023-05-05T02:33:41.551Z,13.21
2023-05-05T02:36:17.709Z,13.18
2023-05-05T02:38:57.589Z,13.16
2023-05-05T02:41:30.795Z,13.13
2023-05-05T02:44:06.382Z,13.10
2023-05-05T02:46:38.466Z,13.11
2023-05-05T02:49:09.152Z,13.10
2023-05-05T02:51:39.155Z,13.06
2023-05-05T02:54:13.249Z,13.13
2023-05-05T02:56:48.486Z,13.17
2023-05-05T02:59:23.566Z,13.25
2023-05-05T03:02:07.838Z,13.33
2023-05-05T03:04:44.001Z,13.38
2023-05-05T03:11:42.336Z,13.56
2023-05-05T03:14:14.189Z,13.51
2023-05-05T03:16:45.510Z,13.50
2023-05-05T03:19:19.608Z,13.49
2023-05-05T03:21:53.566Z,13.45
2023-05-05T03:24:22.773Z,13.45
2023-05-05T03:26:59.331Z,13.46
2023-05-05T03:29:34.002Z,13.48
2023-05-05T03:32:04.675Z,13.49
2023-05-05T03:34:36.020Z,13.47
2023-05-05T03:37:06.064Z,13.49
2023-05-05T03:39:34.953Z,13.48
2023-05-05T03:42:03.949Z,13.48
2023-05-05T03:44:34.649Z,13.47
2023-05-05T03:47:03.436Z,13.48
2023-05-05T03:49:34.074Z,13.50
2023-05-05T03:52:02.258Z,13.51
2023-05-05T03:54:32.411Z,13.55
2023-05-05T03:57:01.080Z,13.59
2023-05-05T03:59:29.160Z,13.60
2023-05-05T04:01:58.014Z,13.62
2023-05-05T04:04:26.701Z,13.64
2023-05-05T04:06:55.009Z,13.64
2023-05-05T04:09:23.466Z,13.68
2023-05-05T04:11:52.901Z,13.70
2023-05-05T04:14:21.421Z,13.69
2023-05-05T04:16:49.760Z,13.66
2023-05-05T04:19:18.551Z,13.59
2023-05-05T04:21:46.965Z,13.46
2023-05-05T04:24:15.144Z,13.54
2023-05-05T04:26:43.198Z,13.52
2023-05-05T04:29:13.121Z,13.46
2023-05-05T04:31:41.874Z,13.55
2023-05-05T04:34:10.176Z,13.60
2023-05-05T04:36:39.063Z,13.66
2023-05-05T04:39:08.293Z,13.79
2023-05-05T04:41:38.279Z,13.78
2023-05-05T04:44:07.240Z,13.87
2023-05-05T04:46:37.052Z,13.91
2023-05-05T04:49:05.943Z,13.88
2023-05-05T04:51:35.582Z,14.00
2023-05-05T04:54:04.284Z,14.03
2023-05-05T04:56:32.469Z,14.01
2023-05-05T04:59:00.594Z,13.99
2023-05-05T05:01:29.002Z,14.04
2023-05-05T05:03:58.710Z,14.20
2023-05-05T05:06:27.236Z,14.36
2023-05-05T05:08:56.968Z,14.44
2023-05-05T05:11:25.105Z,14.53
2023-05-05T05:13:53.109Z,14.66
2023-05-05T05:16:21.532Z,14.82
2023-05-05T05:18:50.840Z,15.00
2023-05-05T05:21:21.076Z,15.16
2023-05-05T05:23:50.554Z,15.33
2023-05-05T05:26:19.059Z,15.48
2023-05-05T05:28:47.199Z,15.64
2023-05-05T05:31:15.224Z,15.80
2023-05-05T05:33:43.881Z,15.96
2023-05-05T05:36:13.794Z,16.07
2023-05-05T05:38:43.200Z,16.20
2023-05-05T05:41:11.953Z,16.31
2023-05-05T05:43:41.652Z,16.46
2023-05-05T05:46:10.538Z,16.64
2023-05-05T05:48:40.828Z,16.79
2023-05-05T05:51:09.502Z,17.05
2023-05-05T05:53:37.820Z,17.31
2023-05-05T05:56:08.576Z,17.61
2023-05-05T05:58:37.273Z,17.90
2023-05-05T06:01:05.648Z,18.09
2023-05-05T06:03:34.787Z,18.25
2023-05-05T06:06:03.016Z,18.38
2023-05-05T06:08:31.498Z,18.55
2023-05-05T06:11:00.727Z,18.85
2023-05-05T06:13:30.590Z,19.19
2023-05-05T06:15:59.200Z,19.50
2023-05-05T06:18:27.793Z,19.85
2023-05-05T06:20:56.153Z,20.14
2023-05-05T06:23:28.185Z,20.48
2023-05-05T06:26:01.237Z,20.82
2023-05-05T06:28:30.874Z,21.16
2023-05-05T06:30:59.045Z,21.34
2023-05-05T06:33:27.389Z,21.42
2023-05-05T06:35:55.740Z,21.45
2023-05-05T06:38:24.103Z,21.52
2023-05-05T06:40:52.124Z,21.59
2023-05-05T06:43:21.001Z,21.66
2023-05-05T06:45:56.588Z,21.89
2023-05-05T06:48:24.647Z,22.20
2023-05-05T06:50:52.622Z,22.53
2023-05-05T06:53:21.221Z,22.84
2023-05-05T06:55:49.804Z,23.11
2023-05-05T06:58:18.002Z,23.40
2023-05-05T07:00:46.268Z,23.76
2023-05-05T07:03:16.063Z,24.07
2023-05-05T07:05:44.402Z,24.37
2023-05-05T07:08:12.739Z,24.60
2023-05-05T07:10:41.777Z,24.75
2023-05-05T07:13:09.896Z,24.95
2023-05-05T07:15:38.088Z,25.17
2023-05-05T07:18:06.766Z,25.39
2023-05-05T07:20:36.483Z,25.51
2023-05-05T07:23:04.578Z,25.56
2023-05-05T07:25:33.342Z,25.68
2023-05-05T07:28:02.123Z,25.85
2023-05-05T07:30:30.471Z,26.10
2023-05-05T07:32:58.648Z,26.34
2023-05-05T07:35:27.833Z,26.53
2023-05-05T07:37:57.467Z,26.74
2023-05-05T07:42:54.009Z,27.26
2023-05-05T07:45:22.292Z,27.44
2023-05-05T07:47:50.694Z,27.66
2023-05-05T07:50:19.475Z,27.84
2023-05-05T07:52:53.951Z,27.97
2023-05-05T07:55:31.576Z,28.11
2023-05-05T07:57:59.740Z,28.24
2023-05-05T08:00:28.087Z,28.25
2023-05-05T08:02:56.806Z,28.42
2023-05-05T08:05:25.157Z,28.42
2023-05-05T08:07:53.357Z,28.45
2023-05-05T08:10:23.160Z,28.59
2023-05-05T08:12:54.546Z,28.72
2023-05-05T08:15:25.234Z,28.72
2023-05-05T08:17:56.004Z,28.63
2023-05-05T08:20:28.577Z,28.59
2023-05-05T08:22:56.648Z,28.96
2023-05-05T08:25:27.208Z,29.28
2023-05-05T08:27:56.882Z,29.31
2023-05-05T08:30:29.480Z,29.35
2023-05-05T08:32:58.998Z,29.40
2023-05-05T08:35:27.320Z,29.49
2023-05-05T08:37:57.345Z,29.54
2023-05-05T08:40:33.034Z,29.57
2023-05-05T08:43:02.928Z,29.66
2023-05-05T08:45:31.343Z,29.76
2023-05-05T08:48:02.699Z,29.99
2023-05-05T08:50:32.317Z,29.96
2023-05-05T08:53:10.878Z,30.05
2023-05-05T08:55:46.874Z,29.84
2023-05-05T08:58:18.856Z,29.85
2023-05-05T09:00:47.461Z,29.99
2023-05-05T09:03:16.841Z,30.00
2023-05-05T09:05:46.211Z,29.98
2023-05-05T09:08:16.571Z,29.91
2023-05-05T09:10:44.936Z,29.82
2023-05-05T09:13:13.299Z,29.88
2023-05-05T09:15:42.839Z,29.83
2023-05-05T09:18:12.147Z,29.70
2023-05-05T09:20:42.037Z,29.67
2023-05-05T09:23:12.106Z,29.45
2023-05-05T09:25:40.617Z,29.57
2023-05-05T09:28:13.420Z,29.63
2023-05-05T09:30:44.545Z,29.72
2023-05-05T09:33:13.365Z,29.73
2023-05-05T09:35:53.005Z,29.60
2023-05-05T09:38:22.885Z,29.84
2023-05-05T09:40:53.037Z,30.28
2023-05-05T09:43:23.461Z,30.52
2023-05-05T09:45:52.987Z,30.43
2023-05-05T09:48:28.209Z,30.41
2023-05-05T09:50:57.770Z,30.34
2023-05-05T09:53:26.910Z,30.21
2023-05-05T09:55:56.377Z,30.09
2023-05-05T09:58:26.414Z,30.07
2023-05-05T10:00:57.091Z,29.98
2023-05-05T10:03:25.971Z,30.05
2023-05-05T10:05:56.716Z,30.25
2023-05-05T10:08:26.906Z,30.36
2023-05-05T10:10:59.515Z,30.36
2023-05-05T10:13:28.813Z,30.66
2023-05-05T10:15:59.133Z,30.42
2023-05-05T10:18:29.057Z,30.37
2023-05-05T10:20:59.753Z,30.42
2023-05-05T10:23:37.093Z,30.23
2023-05-05T10:26:09.280Z,30.23
2023-05-05T10:28:47.154Z,30.07
2023-05-05T10:31:26.427Z,29.99
2023-05-05T10:34:01.712Z,29.87
2023-05-05T10:36:32.069Z,29.91
2023-05-05T10:39:01.581Z,30.11
2023-05-05T10:41:32.389Z,30.40
2023-05-05T10:44:04.333Z,30.60
2023-05-05T10:46:34.587Z,30.38
2023-05-05T10:49:15.789Z,30.18
2023-05-05T10:51:54.015Z,30.28
2023-05-05T10:54:31.305Z,30.59
2023-05-05T10:57:02.570Z,30.69
2023-05-05T10:59:44.914Z,30.70
2023-05-05T11:02:28.100Z,30.57
2023-05-05T11:05:15.403Z,30.16
2023-05-05T11:07:45.130Z,29.86
2023-05-05T11:10:16.166Z,29.74
2023-05-05T11:13:20.146Z,29.46
2023-05-05T11:15:50.235Z,29.07
2023-05-05T11:18:36.093Z,29.38
2023-05-05T11:21:19.045Z,29.83
2023-05-05T11:23:49.692Z,30.04
2023-05-05T11:26:20.580Z,30.20
2023-05-05T11:29:03.124Z,30.52
2023-05-05T11:31:32.319Z,30.56
2023-05-05T11:34:29.193Z,30.12
2023-05-05T11:37:01.533Z,29.84
2023-05-05T11:39:41.695Z,29.91
2023-05-05T11:42:23.475Z,30.01
2023-05-05T11:44:52.890Z,30.04
2023-05-05T11:47:33.757Z,30.08
2023-05-05T11:50:22.975Z,30.11
2023-05-05T11:52:51.347Z,30.24
2023-05-05T11:55:24.391Z,30.35
2023-05-05T11:57:53.369Z,30.37
2023-05-05T12:00:32.232Z,30.26
2023-05-05T12:03:00.990Z,29.99
2023-05-05T12:05:34.849Z,29.92
2023-05-05T12:08:04.937Z,29.95
2023-05-05T12:10:33.266Z,30.01
2023-05-05T12:13:01.769Z,30.11
2023-05-05T12:15:31.393Z,30.27
2023-05-05T12:18:02.669Z,30.39
2023-05-05T12:20:35.214Z,30.51
2023-05-05T12:23:06.267Z,30.69
2023-05-05T12:25:39.302Z,30.81
2023-05-05T12:28:09.546Z,30.84
2023-05-05T12:30:38.219Z,30.73
2023-05-05T12:33:07.747Z,30.42
2023-05-05T12:35:38.097Z,30.17
2023-05-05T12:38:06.420Z,29.97
2023-05-05T12:40:46.000Z,29.83
2023-05-05T12:43:29.578Z,29.71
2023-05-05T12:46:07.193Z,29.79
2023-05-05T12:48:38.075Z,29.86
2023-05-05T12:51:23.475Z,29.91
2023-05-05T12:54:03.895Z,30.08
2023-05-05T12:56:37.499Z,30.19
2023-05-05T12:59:08.242Z,30.21
2023-05-05T13:01:49.269Z,30.17
2023-05-05T13:04:18.833Z,29.99
2023-05-05T13:06:50.446Z,29.91
2023-05-05T13:09:26.121Z,29.85
2023-05-05T13:11:55.311Z,29.77
2023-05-05T13:14:24.528Z,29.66
2023-05-05T13:16:52.938Z,29.54
2023-05-05T13:19:22.686Z,29.44
2023-05-05T13:21:52.580Z,29.30
2023-05-05T13:24:28.709Z,29.15
2023-05-05T13:27:03.927Z,29.18
2023-05-05T13:29:32.522Z,29.27
2023-05-05T13:32:00.620Z,29.21
2023-05-05T13:34:28.749Z,29.17
2023-05-05T13:36:58.601Z,29.10
2023-05-05T13:39:26.546Z,28.97
2023-05-05T13:41:55.207Z,28.85
2023-05-05T13:44:23.592Z,28.79
2023-05-05T13:46:52.010Z,28.81
2023-05-05T13:49:20.533Z,28.82
2023-05-05T13:51:48.701Z,28.84
2023-05-05T13:54:18.297Z,28.77
2023-05-05T13:56:47.099Z,28.69
2023-05-05T13:59:15.406Z,28.64
2023-05-05T14:01:43.677Z,28.51
2023-05-05T14:04:11.818Z,28.42
2023-05-05T14:06:41.062Z,28.24
2023-05-05T14:09:09.337Z,28.11
2023-05-05T14:11:38.699Z,28.02
2023-05-05T14:14:07.190Z,28.07
2023-05-05T14:16:35.635Z,28.11
2023-05-05T14:19:04.334Z,28.10
2023-05-05T14:21:33.071Z,28.15
2023-05-05T14:24:01.323Z,28.20
2023-05-05T14:26:29.435Z,28.13
2023-05-05T14:28:58.740Z,28.02
2023-05-05T14:31:26.913Z,27.91
2023-05-05T14:33:54.967Z,27.87
2023-05-05T14:36:23.767Z,27.91
2023-05-05T14:38:51.990Z,27.96
2023-05-05T14:41:20.360Z,27.90
2023-05-05T14:43:48.632Z,27.91
2023-05-05T14:46:19.112Z,27.89
2023-05-05T14:48:48.832Z,27.90
2023-05-05T14:51:18.229Z,27.79
2023-05-05T14:53:46.823Z,27.77
2023-05-05T14:56:15.620Z,27.78
2023-05-05T14:58:44.365Z,27.81
2023-05-05T15:01:12.552Z,27.72
2023-05-05T15:03:42.196Z,27.66
2023-05-05T15:06:11.184Z,27.64
2023-05-05T15:08:40.158Z,27.55
2023-05-05T15:11:08.125Z,27.50
2023-05-05T15:13:38.866Z,27.42
2023-05-05T15:16:07.860Z,27.39
2023-05-05T15:18:35.999Z,27.35
2023-05-05T15:21:05.764Z,27.35
2023-05-05T15:23:34.112Z,27.31
2023-05-05T15:26:02.495Z,27.25
2023-05-05T15:28:30.632Z,27.26
2023-05-05T15:31:01.854Z,27.25
2023-05-05T15:33:30.945Z,27.30
2023-05-05T15:35:59.226Z,27.25
2023-05-05T15:38:29.714Z,27.27
2023-05-05T15:40:57.847Z,27.29
2023-05-05T15:43:27.110Z,27.28
2023-05-05T15:45:55.705Z,27.23
2023-05-05T15:48:23.950Z,27.20
2023-05-05T15:50:52.170Z,27.17
2023-05-05T15:53:20.074Z,27.12
2023-05-05T15:55:49.468Z,27.04
2023-05-05T15:58:17.476Z,26.90
2023-05-05T16:00:45.498Z,26.81
2023-05-05T16:03:14.023Z,26.77
2023-05-05T16:05:42.969Z,26.74
2023-05-05T16:08:11.356Z,26.67
2023-05-05T16:10:40.058Z,26.62
2023-05-05T16:13:09.436Z,26.53
2023-05-05T16:15:39.147Z,26.44
2023-05-05T16:18:07.286Z,26.38
2023-05-05T16:20:35.216Z,26.40
2023-05-05T16:23:03.100Z,26.37
2023-05-05T16:25:31.097Z,26.33
2023-05-05T16:28:00.479Z,26.34
2023-05-05T16:30:29.898Z,26.28
2023-05-05T16:32:58.024Z,26.21
2023-05-05T16:35:26.214Z,26.21
2023-05-05T16:37:54.431Z,26.18
2023-05-05T16:40:22.713Z,26.17
2023-05-05T16:42:50.921Z,26.12
2023-05-05T16:45:19.337Z,26.08
2023-05-05T16:47:48.935Z,26.06
2023-05-05T16:50:17.767Z,25.94
2023-05-05T16:52:46.344Z,25.85
2023-05-05T16:55:15.628Z,25.78
2023-05-05T16:57:43.998Z,25.73
2023-05-05T17:00:13.640Z,25.70
2023-05-05T17:02:41.846Z,25.68
2023-05-05T17:05:11.747Z,25.55
2023-05-05T17:07:41.326Z,25.44
2023-05-05T17:10:10.873Z,25.29
2023-05-05T17:12:39.463Z,25.31
2023-05-05T17:15:09.179Z,25.35
2023-05-05T17:17:37.347Z,25.28
2023-05-05T17:20:06.563Z,25.19
2023-05-05T17:22:36.558Z,25.18
2023-05-05T17:25:05.131Z,25.14
2023-05-05T17:27:33.158Z,25.15
2023-05-05T17:30:01.385Z,25.12
2023-05-05T17:32:29.757Z,25.05
2023-05-05T17:34:57.973Z,25.00
2023-05-05T17:37:26.781Z,24.91
2023-05-05T17:39:56.699Z,24.86
2023-05-05T17:42:27.157Z,24.79
2023-05-05T17:44:55.284Z,24.75
2023-05-05T17:47:24.426Z,24.67
2023-05-05T17:49:54.728Z,24.57
2023-05-05T17:52:25.330Z,24.47
2023-05-05T17:54:55.940Z,24.44
2023-05-05T17:57:25.237Z,24.41
2023-05-05T17:59:54.564Z,24.40
2023-05-05T18:02:24.277Z,24.39
2023-05-05T18:04:52.617Z,24.31
2023-05-05T18:07:20.764Z,24.15
2023-05-05T18:09:48.872Z,24.05
2023-05-05T18:12:17.535Z,23.99
2023-05-05T18:14:47.131Z,24.00
2023-05-05T18:17:16.106Z,23.97
2023-05-05T18:19:47.302Z,23.99
2023-05-05T18:22:17.713Z,23.95
2023-05-05T18:24:47.000Z,23.93
2023-05-05T18:27:15.326Z,23.92
2023-05-05T18:29:43.454Z,23.89
2023-05-05T18:32:12.831Z,23.89
2023-05-05T18:34:40.780Z,23.89
2023-05-05T18:37:08.971Z,23.85
2023-05-05T18:39:38.085Z,23.73
2023-05-05T18:42:07.965Z,23.68
2023-05-05T18:44:36.268Z,23.63
2023-05-05T18:47:04.352Z,23.67
2023-05-05T18:49:34.073Z,23.12
2023-05-05T18:52:04.404Z,22.17
2023-05-05T18:54:34.644Z,21.33
2023-05-05T18:57:03.666Z,20.78
2023-05-05T18:59:31.956Z,20.49
2023-05-05T19:02:01.336Z,20.19
2023-05-05T19:04:34.279Z,19.93
2023-05-05T19:07:07.870Z,19.69
2023-05-05T19:09:38.618Z,19.48
2023-05-05T19:12:09.005Z,19.28
2023-05-05T19:14:39.079Z,19.13
2023-05-05T19:17:07.786Z,19.01
2023-05-05T19:19:40.154Z,18.83
2023-05-05T19:22:10.770Z,18.65
2023-05-05T19:24:40.496Z,18.51
2023-05-05T19:27:15.502Z,18.45
2023-05-05T19:29:49.226Z,18.23
2023-05-05T19:32:19.293Z,18.17
2023-05-05T19:34:50.260Z,18.15
2023-05-05T19:37:20.079Z,18.12
2023-05-05T19:39:49.093Z,18.11
2023-05-05T19:42:18.286Z,18.12
2023-05-05T19:44:47.062Z,18.03
2023-05-05T19:47:15.766Z,18.03
2023-05-05T19:49:43.869Z,17.72
2023-05-05T19:52:11.916Z,17.57
2023-05-05T19:54:41.312Z,17.21
2023-05-05T19:57:09.522Z,16.94
2023-05-05T19:59:39.145Z,16.39
2023-05-05T20:02:09.454Z,16.47
2023-05-05T20:04:37.988Z,16.36
2023-05-05T20:07:06.251Z,16.27
2023-05-05T20:09:35.040Z,16.23
2023-05-05T20:12:04.882Z,16.24
2023-05-05T20:14:33.287Z,16.31
2023-05-05T20:17:01.340Z,16.33
2023-05-05T20:19:29.651Z,16.38
2023-05-05T20:21:59.296Z,16.42
2023-05-05T20:24:29.211Z,16.43
2023-05-05T20:26:57.857Z,16.45
2023-05-05T20:29:27.431Z,16.45
2023-05-05T20:31:56.711Z,16.45
2023-05-05T20:34:27.206Z,16.53
2023-05-05T20:36:55.520Z,16.53
2023-05-05T20:39:23.910Z,16.54
2023-05-05T20:41:52.167Z,16.54
2023-05-05T20:44:21.042Z,16.55
2023-05-05T20:46:50.541Z,16.53
2023-05-05T20:49:18.736Z,16.53
2023-05-05T20:51:46.692Z,16.55
2023-05-05T20:54:15.285Z,16.60
2023-05-05T20:56:43.577Z,16.60
2023-05-05T20:59:11.960Z,16.62
2023-05-05T21:01:40.362Z,16.63
2023-05-05T21:04:09.713Z,16.58
2023-05-05T21:06:38.458Z,16.55
2023-05-05T21:09:06.802Z,16.43
2023-05-05T21:11:34.774Z,16.41
2023-05-05T21:14:02.771Z,16.37
2023-05-05T21:16:31.141Z,16.35
2023-05-05T21:18:59.156Z,16.36
2023-05-05T21:21:28.514Z,16.41
2023-05-05T21:23:57.850Z,16.46
2023-05-05T21:26:26.093Z,16.47
2023-05-05T21:28:54.598Z,16.51
2023-05-05T21:31:22.826Z,16.51
2023-05-05T21:33:53.045Z,16.49
2023-05-05T21:36:21.318Z,16.51
2023-05-05T21:38:51.120Z,16.46
2023-05-05T21:41:20.126Z,16.46
2023-05-05T21:43:48.219Z,16.38
2023-05-05T21:46:17.899Z,16.40
2023-05-05T21:48:47.938Z,16.37
2023-05-05T21:51:16.054Z,16.42
2023-05-05T21:53:44.261Z,16.45
2023-05-05T21:56:13.774Z,16.50
2023-05-05T21:58:42.153Z,16.55
2023-05-05T22:01:10.906Z,16.62
2023-05-05T22:03:39.253Z,16.69
2023-05-05T22:06:28.173Z,16.72
2023-05-05T22:09:15.078Z,16.73
2023-05-05T22:11:44.715Z,16.74
2023-05-05T22:14:13.317Z,16.79
2023-05-05T22:16:41.627Z,16.84
2023-05-05T22:19:09.950Z,16.86
2023-05-05T22:21:38.017Z,16.90
2023-05-05T22:24:07.476Z,16.92
2023-05-05T22:26:35.580Z,16.93
2023-05-05T22:29:05.083Z,16.93
2023-05-05T22:31:33.184Z,16.93
2023-05-05T22:34:02.347Z,16.89
2023-05-05T22:36:31.262Z,16.89
2023-05-05T22:38:59.313Z,16.89
2023-05-05T22:41:30.851Z,16.87
2023-05-05T22:43:59.277Z,16.88
2023-05-05T22:46:28.948Z,16.90
2023-05-05T22:48:56.964Z,16.91
2023-05-05T22:51:25.187Z,16.88
2023-05-05T22:53:54.820Z,16.85
2023-05-05T22:56:22.804Z,16.84
2023-05-05T22:58:50.959Z,16.82
2023-05-05T23:01:19.170Z,16.79
2023-05-05T23:03:49.073Z,16.71
2023-05-05T23:06:17.550Z,16.66
2023-05-05T23:08:45.600Z,16.62
2023-05-05T23:11:13.554Z,16.59
2023-05-05T23:13:41.952Z,16.61
2023-05-05T23:16:10.017Z,16.54
2023-05-05T23:18:38.783Z,16.46
2023-05-05T23:21:09.962Z,16.34
2023-05-05T23:23:38.393Z,16.35
2023-05-05T23:26:06.494Z,16.41
2023-05-05T23:28:34.743Z,16.45
2023-05-05T23:31:02.933Z,16.47
2023-05-05T23:33:31.117Z,16.46
2023-05-05T23:35:59.105Z,16.48
2023-05-05T23:38:28.579Z,16.48
2023-05-05T23:40:56.720Z,16.47
2023-05-05T23:43:24.956Z,16.47
2023-05-05T23:45:53.328Z,16.47
2023-05-05T23:48:21.629Z,16.45
2023-05-05T23:50:50.440Z,16.46
2023-05-05T23:53:18.614Z,16.53
2023-05-05T23:55:48.359Z,16.57
2023-05-05T23:58:16.353Z,16.60
